createdAt,value
2018-12-17T00:01:57.337Z,24.03
2018-12-17T00:04:29.907Z,23.97
2018-12-17T00:07:02.415Z,25.47
2018-12-17T00:09:33.011Z,24.03
2018-12-17T00:12:03.408Z,24.13
2018-12-17T00:14:34.066Z,24.73
2018-12-17T00:17:05.247Z,25.90
2018-12-17T00:19:35.606Z,24.63
2018-12-17T00:22:06.199Z,25.40
2018-12-17T00:24:36.628Z,25.60
2018-12-17T00:27:07.053Z,23.33
2018-12-17T00:29:37.462Z,24.83
2018-12-17T00:32:08.031Z,24.87
2018-12-17T00:34:38.372Z,24.10
2018-12-17T00:37:08.698Z,23.97
2018-12-17T00:39:39.104Z,24.63
2018-12-17T00:42:09.457Z,23.93
2018-12-17T00:44:39.963Z,22.60
2018-12-17T00:47:10.379Z,22.03
2018-12-17T00:49:40.758Z,22.13
2018-12-17T00:52:11.068Z,22.17
2018-12-17T00:54:41.470Z,22.33
2018-12-17T00:57:11.804Z,21.67
2018-12-17T00:59:42.323Z,22.77
2018-12-17T01:02:12.687Z,23.93
2018-12-17T01:04:43.067Z,23.73
2018-12-17T01:07:13.439Z,24.03
2018-12-17T01:09:43.756Z,22.97
2018-12-17T01:12:14.133Z,23.00
2018-12-17T01:14:44.503Z,23.70
2018-12-17T01:17:14.958Z,24.53
2018-12-17T01:19:45.244Z,26.00
2018-12-17T01:22:15.793Z,27.13
2018-12-17T01:24:46.145Z,26.67
2018-12-17T01:27:16.572Z,27.30
2018-12-17T01:29:46.838Z,26.40
2018-12-17T01:32:17.154Z,26.73
2018-12-17T01:34:47.526Z,28.33
2018-12-17T01:37:17.910Z,28.43
2018-12-17T01:39:48.435Z,27.37
2018-12-17T01:42:18.887Z,28.33
2018-12-17T01:44:49.262Z,28.07
2018-12-17T01:47:19.703Z,27.37
2018-12-17T01:49:49.979Z,28.23
2018-12-17T01:52:20.393Z,25.93
2018-12-17T01:54:50.766Z,26.30
2018-12-17T01:57:21.275Z,26.23
2018-12-17T01:59:51.618Z,23.90
2018-12-17T02:02:21.953Z,24.70
2018-12-17T02:04:52.540Z,24.60
2018-12-17T02:07:23.035Z,24.40
2018-12-17T02:09:53.682Z,25.07
2018-12-17T02:12:24.042Z,24.20
2018-12-17T02:14:54.400Z,23.70
2018-12-17T02:17:24.882Z,23.17
2018-12-17T02:19:55.549Z,23.00
2018-12-17T02:22:25.913Z,23.37
2018-12-17T02:24:56.324Z,22.47
2018-12-17T02:27:26.810Z,23.03
2018-12-17T02:29:57.085Z,23.73
2018-12-17T02:32:27.667Z,21.50
2018-12-17T02:34:58.371Z,18.97
2018-12-17T02:37:28.780Z,19.33
2018-12-17T02:39:59.460Z,19.23
2018-12-17T02:42:29.980Z,19.70
2018-12-17T02:45:00.562Z,19.77
2018-12-17T02:47:30.930Z,20.53
2018-12-17T02:50:01.513Z,19.10
2018-12-17T02:52:31.933Z,21.13
2018-12-17T02:55:02.380Z,21.00
2018-12-17T02:57:32.834Z,23.27
2018-12-17T03:00:03.277Z,23.40
2018-12-17T03:02:34.642Z,24.13
2018-12-17T03:05:05.703Z,24.07
2018-12-17T03:07:36.029Z,24.37
2018-12-17T03:10:07.483Z,24.80
2018-12-17T03:12:37.798Z,23.90
2018-12-17T03:15:08.396Z,25.97
2018-12-17T03:17:38.786Z,24.07
2018-12-17T03:20:09.092Z,24.20
2018-12-17T03:22:39.403Z,24.37
2018-12-17T03:25:09.759Z,23.73
2018-12-17T03:27:40.145Z,23.73
2018-12-17T03:30:10.645Z,26.33
2018-12-17T03:32:40.989Z,26.40
2018-12-17T03:35:11.325Z,25.70
2018-12-17T03:37:41.744Z,28.23
2018-12-17T03:40:12.171Z,27.00
2018-12-17T03:42:42.592Z,27.53
2018-12-17T03:45:12.897Z,27.63
2018-12-17T03:47:43.196Z,28.13
2018-12-17T03:50:16.118Z,29.53
2018-12-17T03:52:46.418Z,28.70
2018-12-17T03:55:16.814Z,29.43
2018-12-17T03:57:47.062Z,29.67
2018-12-17T04:00:17.445Z,32.33
2018-12-17T04:02:48.225Z,36.73
2018-12-17T04:05:18.821Z,33.97
2018-12-17T04:07:49.461Z,43.73
2018-12-17T04:10:19.858Z,49.77
2018-12-17T04:12:51.055Z,49.87
2018-12-17T04:15:21.699Z,46.13
2018-12-17T04:17:52.055Z,43.03
2018-12-17T04:20:22.542Z,43.87
2018-12-17T04:22:52.930Z,53.47
2018-12-17T04:25:23.506Z,47.90
2018-12-17T04:27:53.878Z,49.70
2018-12-17T04:30:27.318Z,56.53
2018-12-17T04:32:57.682Z,65.67
2018-12-17T04:35:28.024Z,62.47
2018-12-17T04:37:58.444Z,53.40
2018-12-17T04:40:29.173Z,52.63
2018-12-17T04:42:59.714Z,49.23
2018-12-17T04:45:30.037Z,45.60
2018-12-17T04:48:00.396Z,53.53
2018-12-17T04:50:30.990Z,54.60
2018-12-17T04:53:01.442Z,59.50
2018-12-17T04:55:31.821Z,61.40
2018-12-17T04:58:02.231Z,63.77
2018-12-17T05:00:32.649Z,61.93
2018-12-17T05:03:03.359Z,50.57
2018-12-17T05:05:33.752Z,48.03
2018-12-17T05:08:04.175Z,40.47
2018-12-17T05:10:35.050Z,39.73
2018-12-17T05:13:05.684Z,38.17
2018-12-17T05:15:36.365Z,37.93
2018-12-17T05:18:07.085Z,36.93
2018-12-17T05:20:37.613Z,35.90
2018-12-17T05:23:08.243Z,36.33
2018-12-17T05:25:39.097Z,31.10
2018-12-17T05:28:09.546Z,30.60
2018-12-17T05:30:39.935Z,28.73
2018-12-17T05:33:10.747Z,28.67
2018-12-17T05:35:42.345Z,29.77
2018-12-17T05:38:12.759Z,37.30
2018-12-17T05:40:43.108Z,38.67
2018-12-17T05:43:13.839Z,39.70
2018-12-17T05:45:44.215Z,42.40
2018-12-17T05:48:14.835Z,42.47
2018-12-17T05:50:45.239Z,40.50
2018-12-17T05:53:15.630Z,43.60
2018-12-17T05:55:45.973Z,39.37
2018-12-17T05:58:16.317Z,39.33
2018-12-17T06:00:46.765Z,45.43
2018-12-17T06:03:17.385Z,45.33
2018-12-17T06:05:48.192Z,49.17
2018-12-17T06:08:18.905Z,41.87
2018-12-17T06:10:49.540Z,40.10
2018-12-17T06:13:20.083Z,42.93
2018-12-17T06:15:50.777Z,40.50
2018-12-17T06:18:21.537Z,42.97
2018-12-17T06:20:52.542Z,41.90
2018-12-17T06:23:22.983Z,48.03
2018-12-17T06:25:53.339Z,45.13
2018-12-17T06:28:23.854Z,45.93
2018-12-17T06:30:54.675Z,46.57
2018-12-17T06:33:25.020Z,46.10
2018-12-17T06:35:55.653Z,42.90
2018-12-17T06:38:26.292Z,43.87
2018-12-17T06:40:56.602Z,52.67
2018-12-17T06:43:27.315Z,77.83
2018-12-17T06:45:57.697Z,56.47
2018-12-17T06:48:28.349Z,53.07
2018-12-17T06:50:59.323Z,56.50
2018-12-17T06:53:29.905Z,49.37
2018-12-17T06:56:00.311Z,46.10
2018-12-17T06:58:31.316Z,53.87
2018-12-17T07:01:01.725Z,50.60
2018-12-17T07:03:32.346Z,44.73
2018-12-17T07:06:02.753Z,43.27
2018-12-17T07:08:33.293Z,52.63
2018-12-17T07:11:03.976Z,47.77
2018-12-17T07:13:34.330Z,48.80
2018-12-17T07:16:04.773Z,47.87
2018-12-17T07:18:35.219Z,43.03
2018-12-17T07:21:05.642Z,41.37
2018-12-17T07:23:35.977Z,41.13
2018-12-17T07:26:06.400Z,39.03
2018-12-17T07:28:37.045Z,39.97
2018-12-17T07:31:07.514Z,39.93
2018-12-17T07:33:37.908Z,38.50
2018-12-17T07:36:08.233Z,38.80
2018-12-17T07:38:38.581Z,37.33
2018-12-17T07:41:09.201Z,36.40
2018-12-17T07:43:46.102Z,40.70
2018-12-17T07:46:16.518Z,61.80
2018-12-17T07:48:46.930Z,68.00
2018-12-17T07:51:17.305Z,49.87
2018-12-17T07:53:47.680Z,53.53
2018-12-17T07:56:18.052Z,55.10
2018-12-17T07:58:48.381Z,58.07
2018-12-17T08:01:18.689Z,50.63
2018-12-17T08:03:49.135Z,44.97
2018-12-17T08:06:19.493Z,46.90
2018-12-17T08:08:51.117Z,45.17
2018-12-17T08:11:21.473Z,46.73
2018-12-17T08:13:51.754Z,46.57
2018-12-17T08:16:22.177Z,46.57
2018-12-17T08:18:52.724Z,42.63
2018-12-17T08:21:23.093Z,44.40
2018-12-17T08:23:53.416Z,50.90
2018-12-17T08:26:23.817Z,44.30
2018-12-17T08:28:54.156Z,41.93
2018-12-17T08:31:24.445Z,44.80
2018-12-17T08:33:54.781Z,44.83
2018-12-17T08:36:25.157Z,43.63
2018-12-17T08:38:55.523Z,45.77
2018-12-17T08:41:25.894Z,40.83
2018-12-17T08:43:56.688Z,41.37
2018-12-17T08:46:27.074Z,38.17
2018-12-17T08:48:57.477Z,36.90
2018-12-17T08:51:27.893Z,39.00
2018-12-17T08:53:58.294Z,40.27
2018-12-17T08:56:28.729Z,39.87
2018-12-17T08:58:59.222Z,37.60
2018-12-17T09:01:29.706Z,40.13
2018-12-17T09:04:00.178Z,38.00
2018-12-17T09:06:30.560Z,40.23
2018-12-17T09:09:00.874Z,45.97
2018-12-17T09:11:31.314Z,41.53
2018-12-17T09:14:01.865Z,46.33
2018-12-17T09:16:33.350Z,45.23
2018-12-17T09:19:04.013Z,47.93
2018-12-17T09:21:34.510Z,47.33
2018-12-17T09:24:05.054Z,48.50
2018-12-17T09:26:35.386Z,45.90
2018-12-17T09:29:05.910Z,44.23
2018-12-17T09:31:36.223Z,46.10
2018-12-17T09:34:06.834Z,46.47
2018-12-17T09:36:37.856Z,47.07
2018-12-17T09:39:09.229Z,45.30
2018-12-17T09:41:41.718Z,43.67
2018-12-17T09:44:12.177Z,43.37
2018-12-17T09:46:42.645Z,44.23
2018-12-17T09:49:13.167Z,42.53
2018-12-17T09:51:43.789Z,42.20
2018-12-17T09:54:14.228Z,44.20
2018-12-17T09:56:44.550Z,42.43
2018-12-17T09:59:14.966Z,40.97
2018-12-17T10:01:47.508Z,42.30
2018-12-17T10:04:17.794Z,48.47
2018-12-17T10:06:48.242Z,50.33
2018-12-17T10:09:18.630Z,49.80
2018-12-17T10:11:49.038Z,51.53
2018-12-17T10:14:19.395Z,48.03
2018-12-17T10:16:49.848Z,45.97
2018-12-17T10:19:20.472Z,49.93
2018-12-17T10:21:51.041Z,42.20
2018-12-17T10:24:21.555Z,48.20
2018-12-17T10:26:52.273Z,59.17
2018-12-17T10:29:22.597Z,59.93
2018-12-17T10:31:52.949Z,50.70
2018-12-17T10:34:23.554Z,50.27
2018-12-17T10:36:53.925Z,45.87
2018-12-17T10:39:24.309Z,48.77
2018-12-17T10:41:54.644Z,41.43
2018-12-17T10:44:28.066Z,40.07
2018-12-17T10:46:58.682Z,31.50
2018-12-17T10:49:29.262Z,28.93
2018-12-17T10:51:59.628Z,31.00
2018-12-17T10:54:29.946Z,35.70
2018-12-17T10:57:00.346Z,31.73
2018-12-17T10:59:30.754Z,36.50
2018-12-17T11:02:14.320Z,44.77
2018-12-17T11:04:48.774Z,40.63
2018-12-17T11:07:20.402Z,28.53
2018-12-17T11:09:50.843Z,28.80
2018-12-17T11:12:21.268Z,28.30
2018-12-17T11:14:51.592Z,31.23
2018-12-17T11:17:22.038Z,38.23
2018-12-17T11:19:52.405Z,43.07
2018-12-17T11:22:23.114Z,39.13
2018-12-17T11:24:53.749Z,40.47
2018-12-17T11:27:24.101Z,43.20
2018-12-17T11:29:54.530Z,50.10
2018-12-17T11:32:25.131Z,60.07
2018-12-17T11:34:55.685Z,52.43
2018-12-17T11:37:26.313Z,43.50
2018-12-17T11:39:57.021Z,43.77
2018-12-17T11:42:27.555Z,47.60
2018-12-17T11:44:58.393Z,42.87
2018-12-17T11:47:35.416Z,42.20
2018-12-17T11:50:06.546Z,40.37
2018-12-17T11:52:36.906Z,37.50
2018-12-17T11:55:07.817Z,38.17
2018-12-17T11:57:50.753Z,37.33
2018-12-17T12:00:25.594Z,39.83
2018-12-17T12:02:59.045Z,42.83
2018-12-17T12:05:28.610Z,48.57
2018-12-17T12:07:59.068Z,50.27
2018-12-17T12:10:29.377Z,49.73
2018-12-17T12:12:59.732Z,50.23
2018-12-17T12:15:30.294Z,51.80
2018-12-17T12:18:00.873Z,52.17
2018-12-17T12:20:31.436Z,48.90
2018-12-17T12:23:02.130Z,44.47
2018-12-17T12:25:32.714Z,41.87
2018-12-17T12:28:03.116Z,43.90
2018-12-17T12:30:33.500Z,41.67
2018-12-17T12:33:04.206Z,46.27
2018-12-17T12:35:34.703Z,44.83
2018-12-17T12:38:05.164Z,42.57
2018-12-17T12:40:35.821Z,41.20
2018-12-17T12:43:06.526Z,44.57
2018-12-17T12:45:36.930Z,47.50
2018-12-17T12:48:07.293Z,48.60
2018-12-17T12:50:37.741Z,45.30
2018-12-17T12:53:09.402Z,43.83
2018-12-17T12:55:39.859Z,47.27
2018-12-17T12:58:10.312Z,40.70
2018-12-17T13:00:40.752Z,40.03
2018-12-17T13:03:11.543Z,44.93
2018-12-17T13:05:42.030Z,45.10
2018-12-17T13:08:12.520Z,42.77
2018-12-17T13:10:42.971Z,46.73
2018-12-17T13:13:13.488Z,45.63
2018-12-17T13:15:43.784Z,51.10
2018-12-17T13:18:14.208Z,49.33
2018-12-17T13:20:44.668Z,49.63
2018-12-17T13:23:15.132Z,51.87
2018-12-17T13:25:49.055Z,51.67
2018-12-17T13:28:19.444Z,45.30
2018-12-17T13:30:49.763Z,48.10
2018-12-17T13:33:20.363Z,44.77
2018-12-17T13:35:50.867Z,45.10
2018-12-17T13:38:21.496Z,48.73
2018-12-17T13:40:51.976Z,49.50
2018-12-17T13:43:22.429Z,55.77
2018-12-17T13:45:52.901Z,52.13
2018-12-17T13:48:23.287Z,47.07
2018-12-17T13:50:53.709Z,50.23
2018-12-17T13:53:29.140Z,52.33
2018-12-17T13:55:59.566Z,50.97
2018-12-17T13:58:29.992Z,44.23
2018-12-17T14:01:00.343Z,43.03
2018-12-17T14:03:30.974Z,49.70
2018-12-17T14:06:01.717Z,53.00
2018-12-17T14:08:32.195Z,64.67
2018-12-17T14:11:02.774Z,64.67
2018-12-17T14:13:34.556Z,69.97
2018-12-17T14:16:10.467Z,73.60
2018-12-17T14:18:46.042Z,57.93
2018-12-17T14:21:22.105Z,49.30
2018-12-17T14:23:52.633Z,45.77
2018-12-17T14:26:23.014Z,52.07
2018-12-17T14:28:53.531Z,56.17
2018-12-17T14:31:28.887Z,46.37
2018-12-17T14:33:56.753Z,44.80
2018-12-17T14:36:27.497Z,37.60
2018-12-17T14:38:57.986Z,41.47
2018-12-17T14:41:28.636Z,40.87
2018-12-17T14:44:03.289Z,44.37
2018-12-17T14:46:37.674Z,39.90
2018-12-17T14:49:08.262Z,40.93
2018-12-17T14:51:38.953Z,37.93
2018-12-17T14:54:10.429Z,34.10
2018-12-17T14:56:40.991Z,34.77
2018-12-17T14:59:12.004Z,33.53
2018-12-17T15:01:42.611Z,36.03
2018-12-17T15:04:13.160Z,35.67
2018-12-17T15:06:44.124Z,33.60
2018-12-17T15:09:15.101Z,34.23
2018-12-17T15:11:45.732Z,33.67
2018-12-17T15:14:16.421Z,34.57
2018-12-17T15:16:47.900Z,32.23
2018-12-17T15:19:18.641Z,32.93
2018-12-17T15:21:49.151Z,33.33
2018-12-17T15:24:20.167Z,43.27
2018-12-17T15:26:50.608Z,63.20
2018-12-17T15:29:21.179Z,42.00
2018-12-17T15:31:51.741Z,36.17
2018-12-17T15:34:22.188Z,37.63
2018-12-17T15:36:52.668Z,37.23
2018-12-17T15:39:23.206Z,39.90
2018-12-17T15:41:53.789Z,34.83
2018-12-17T15:44:24.257Z,37.03
2018-12-17T15:46:54.658Z,39.20
2018-12-17T15:49:25.203Z,36.60
2018-12-17T15:51:55.776Z,35.00
2018-12-17T15:54:26.330Z,35.23
2018-12-17T15:56:57.089Z,35.27
2018-12-17T15:59:28.807Z,33.53
2018-12-17T16:01:59.334Z,35.13
2018-12-17T16:04:29.796Z,37.43
2018-12-17T16:07:00.508Z,33.30
2018-12-17T16:09:31.325Z,36.40
2018-12-17T16:12:01.800Z,35.33
2018-12-17T16:14:32.216Z,35.60
2018-12-17T16:17:02.713Z,35.87
2018-12-17T16:19:33.486Z,34.70
2018-12-17T16:22:04.062Z,47.33
2018-12-17T16:24:34.577Z,39.93
2018-12-17T16:27:05.363Z,36.50
2018-12-17T16:29:35.872Z,36.93
2018-12-17T16:32:06.486Z,34.70
2018-12-17T16:34:37.123Z,33.77
2018-12-17T16:37:07.740Z,31.77
2018-12-17T16:39:38.484Z,34.33
2018-12-17T16:42:09.332Z,34.83
2018-12-17T16:44:41.168Z,33.00
2018-12-17T16:47:12.077Z,31.93
2018-12-17T16:49:43.369Z,34.30
2018-12-17T16:52:16.175Z,33.83
2018-12-17T16:54:46.750Z,33.70
2018-12-17T16:57:17.317Z,35.00
2018-12-17T16:59:48.248Z,33.80
2018-12-17T17:02:19.109Z,33.60
2018-12-17T17:04:50.038Z,32.17
2018-12-17T17:07:22.213Z,33.30
2018-12-17T17:09:52.959Z,33.50
2018-12-17T17:12:23.521Z,35.60
2018-12-17T17:14:54.211Z,35.93
2018-12-17T17:17:24.881Z,35.33
2018-12-17T17:19:55.357Z,36.57
2018-12-17T17:22:26.081Z,42.10
2018-12-17T17:24:56.762Z,53.70
2018-12-17T17:27:27.345Z,61.40
2018-12-17T17:29:58.132Z,51.83
2018-12-17T17:32:29.052Z,44.97
2018-12-17T17:34:59.680Z,44.87
2018-12-17T17:37:31.632Z,41.80
2018-12-17T17:40:02.408Z,41.20
2018-12-17T17:42:33.917Z,42.87
2018-12-17T17:45:04.709Z,42.10
2018-12-17T17:47:35.265Z,41.17
2018-12-17T17:50:06.635Z,40.00
2018-12-17T17:52:37.185Z,42.70
2018-12-17T17:55:07.956Z,41.97
2018-12-17T17:57:38.637Z,42.33
2018-12-17T18:00:10.369Z,43.80
2018-12-17T18:02:41.115Z,44.90
2018-12-17T18:05:11.623Z,45.93
2018-12-17T18:07:42.526Z,49.57
2018-12-17T18:10:13.053Z,46.53
2018-12-17T18:12:43.845Z,49.50
2018-12-17T18:15:14.523Z,51.00
2018-12-17T18:17:45.079Z,48.97
2018-12-17T18:20:15.792Z,48.60
2018-12-17T18:22:46.425Z,49.97
2018-12-17T18:25:17.005Z,47.27
2018-12-17T18:27:47.768Z,48.10
2018-12-17T18:30:18.525Z,47.20
2018-12-17T18:32:49.362Z,43.57
2018-12-17T18:35:20.197Z,42.93
2018-12-17T18:37:51.078Z,41.87
2018-12-17T18:40:22.545Z,43.83
2018-12-17T18:42:53.282Z,39.60
2018-12-17T18:45:23.844Z,39.57
2018-12-17T18:47:54.550Z,39.73
2018-12-17T18:50:25.190Z,38.57
2018-12-17T18:52:55.806Z,40.37
2018-12-17T18:55:26.894Z,40.23
2018-12-17T18:57:57.457Z,40.73
2018-12-17T19:00:28.099Z,39.53
2018-12-17T19:02:58.797Z,39.37
2018-12-17T19:05:29.415Z,36.63
2018-12-17T19:08:00.355Z,39.53
2018-12-17T19:10:35.167Z,39.20
2018-12-17T19:13:05.838Z,40.37
2018-12-17T19:15:36.434Z,38.90
2018-12-17T19:18:07.094Z,38.53
2018-12-17T19:20:37.710Z,39.20
2018-12-17T19:23:09.265Z,39.80
2018-12-17T19:25:39.773Z,42.57
2018-12-17T19:28:10.605Z,40.67
2018-12-17T19:30:41.218Z,38.90
2018-12-17T19:33:11.728Z,38.60
2018-12-17T19:35:42.374Z,38.67
2018-12-17T19:38:13.103Z,42.23
2018-12-17T19:40:43.662Z,42.77
2018-12-17T19:43:14.377Z,42.40
2018-12-17T19:45:45.114Z,45.57
2018-12-17T19:48:15.657Z,47.17
2018-12-17T19:50:46.148Z,50.33
2018-12-17T19:53:16.873Z,50.93
2018-12-17T19:55:47.437Z,57.43
2018-12-17T19:58:18.358Z,65.23
2018-12-17T20:00:48.949Z,62.20
2018-12-17T20:03:19.979Z,67.43
2018-12-17T20:05:51.130Z,61.50
2018-12-17T20:08:21.714Z,55.10
2018-12-17T20:10:53.052Z,58.10
2018-12-17T20:13:23.642Z,57.97
2018-12-17T20:15:54.158Z,64.90
2018-12-17T20:18:24.979Z,60.20
2018-12-17T20:20:55.493Z,63.33
2018-12-17T20:23:26.052Z,60.90
2018-12-17T20:25:56.782Z,64.57
2018-12-17T20:28:27.388Z,63.43
2018-12-17T20:30:58.033Z,67.53
2018-12-17T20:33:28.606Z,63.10
2018-12-17T20:35:59.426Z,57.93
2018-12-17T20:38:30.469Z,55.50
2018-12-17T20:41:06.444Z,55.27
2018-12-17T20:43:37.557Z,61.33
2018-12-17T20:46:08.669Z,57.77
2018-12-17T20:48:40.325Z,56.77
2018-12-17T20:51:11.559Z,62.37
2018-12-17T20:53:42.796Z,65.97
2018-12-17T20:56:14.368Z,62.03
2018-12-17T20:58:45.428Z,59.03
2018-12-17T21:01:16.699Z,54.80
2018-12-17T21:03:48.042Z,55.83
2018-12-17T21:06:19.111Z,60.90
2018-12-17T21:08:50.858Z,52.20
2018-12-17T21:11:22.300Z,52.37
2018-12-17T21:13:53.673Z,52.47
2018-12-17T21:16:25.355Z,50.07
2018-12-17T21:18:55.875Z,47.00
2018-12-17T21:21:27.139Z,47.33
2018-12-17T21:24:05.073Z,48.27
2018-12-17T21:26:37.091Z,48.87
2018-12-17T21:29:09.618Z,43.00
2018-12-17T21:31:52.991Z,41.30
2018-12-17T21:34:25.327Z,40.53
2018-12-17T21:36:55.822Z,39.67
2018-12-17T21:39:26.289Z,40.17
2018-12-17T21:41:56.875Z,38.43
2018-12-17T21:44:27.233Z,36.67
2018-12-17T21:46:57.721Z,38.07
2018-12-17T21:49:28.153Z,38.80
2018-12-17T21:51:58.590Z,40.67
2018-12-17T21:54:28.979Z,42.93
2018-12-17T21:56:59.321Z,41.57
2018-12-17T21:59:29.747Z,43.77
2018-12-17T22:02:00.163Z,44.20
2018-12-17T22:04:30.626Z,44.33
2018-12-17T22:07:00.990Z,46.00
2018-12-17T22:09:31.354Z,46.63
2018-12-17T22:12:01.714Z,46.33
2018-12-17T22:14:32.116Z,47.37
2018-12-17T22:17:02.478Z,45.53
2018-12-17T22:19:32.882Z,46.27
2018-12-17T22:22:03.220Z,46.43
2018-12-17T22:24:33.786Z,44.83
2018-12-17T22:27:04.342Z,46.97
2018-12-17T22:29:34.767Z,46.03
2018-12-17T22:32:05.226Z,45.57
2018-12-17T22:34:36.696Z,46.23
2018-12-17T22:37:07.134Z,45.30
2018-12-17T22:39:37.618Z,45.63
2018-12-17T22:42:08.020Z,45.33
2018-12-17T22:44:38.458Z,48.67
2018-12-17T22:47:08.838Z,48.50
2018-12-17T22:49:39.280Z,49.23
2018-12-17T22:52:09.608Z,48.17
2018-12-17T22:54:39.981Z,47.03
2018-12-17T22:57:10.369Z,46.83
2018-12-17T22:59:40.700Z,47.07
2018-12-17T23:02:11.094Z,45.43
2018-12-17T23:04:41.682Z,46.17
2018-12-17T23:07:12.035Z,46.73
2018-12-17T23:09:53.011Z,45.87
2018-12-17T23:12:34.097Z,45.00
2018-12-17T23:15:14.985Z,44.27
2018-12-17T23:17:43.643Z,45.63
2018-12-17T23:20:15.182Z,45.20
2018-12-17T23:22:47.758Z,46.27
2018-12-17T23:25:22.206Z,46.27
2018-12-17T23:27:52.918Z,46.30
2018-12-17T23:30:23.973Z,45.37
2018-12-17T23:32:54.299Z,45.03
2018-12-17T23:35:24.597Z,44.47
2018-12-17T23:37:55.046Z,44.07
2018-12-17T23:40:25.380Z,45.10
2018-12-17T23:42:55.686Z,44.37
2018-12-17T23:45:26.081Z,47.17
2018-12-17T23:47:56.422Z,46.23
2018-12-17T23:50:26.817Z,46.30
2018-12-17T23:52:57.323Z,48.43
2018-12-17T23:55:27.689Z,46.70
2018-12-17T23:57:58.036Z,48.97
